sensor_id;sensor_type;location;lat;lon;timestamp;pressure;altitude;pressure_sealevel;temperature;humidity
36138;BME280;67787;50.074;21.904;2023-03-15T00:01:17;97600.35;;;8.39;57.53
36138;BME280;67787;50.074;21.904;2023-03-15T00:03:47;97597.98;;;8.33;57.59
36138;BME280;67787;50.074;21.904;2023-03-15T00:06:15;97597.23;;;8.30;57.71
36138;BME280;67787;50.074;21.904;2023-03-15T00:08:43;97598.92;;;8.27;57.56
36138;BME280;67787;50.074;21.904;2023-03-15T00:11:15;97606.14;;;8.23;57.66
36138;BME280;67787;50.074;21.904;2023-03-15T00:13:44;97614.98;;;8.20;57.76
36138;BME280;67787;50.074;21.904;2023-03-15T00:16:13;97616.83;;;8.17;57.78
36138;BME280;67787;50.074;21.904;2023-03-15T00:18:45;97618.74;;;8.15;57.76
36138;BME280;67787;50.074;21.904;2023-03-15T00:21:17;97622.98;;;8.13;57.83
36138;BME280;67787;50.074;21.904;2023-03-15T00:23:45;97618.80;;;8.11;57.94
36138;BME280;67787;50.074;21.904;2023-03-15T00:26:13;97623.52;;;8.09;57.79
36138;BME280;67787;50.074;21.904;2023-03-15T00:28:41;97631.45;;;8.07;57.90
36138;BME280;67787;50.074;21.904;2023-03-15T00:31:21;97637.23;;;8.05;58.09
36138;BME280;67787;50.074;21.904;2023-03-15T00:33:51;97639.48;;;8.04;58.10
36138;BME280;67787;50.074;21.904;2023-03-15T00:36:23;97634.81;;;8.03;58.20
36138;BME280;67787;50.074;21.904;2023-03-15T00:38:54;97638.42;;;8.04;58.11
36138;BME280;67787;50.074;21.904;2023-03-15T00:41:22;97646.26;;;8.08;58.31
36138;BME280;67787;50.074;21.904;2023-03-15T00:43:51;97648.25;;;8.13;58.42
36138;BME280;67787;50.074;21.904;2023-03-15T00:46:19;97645.47;;;8.23;58.81
36138;BME280;67787;50.074;21.904;2023-03-15T00:48:49;97646.89;;;8.33;58.71
36138;BME280;67787;50.074;21.904;2023-03-15T00:51:20;97650.55;;;8.42;58.49
36138;BME280;67787;50.074;21.904;2023-03-15T00:53:51;97653.50;;;8.47;58.53
36138;BME280;67787;50.074;21.904;2023-03-15T00:56:24;97651.22;;;8.49;58.81
36138;BME280;67787;50.074;21.904;2023-03-15T00:58:53;97649.27;;;8.54;58.82
36138;BME280;67787;50.074;21.904;2023-03-15T01:01:23;97645.64;;;8.58;59.03
36138;BME280;67787;50.074;21.904;2023-03-15T01:03:52;97649.77;;;8.64;58.91
36138;BME280;67787;50.074;21.904;2023-03-15T01:06:26;97653.71;;;8.69;59.29
36138;BME280;67787;50.074;21.904;2023-03-15T01:08:54;97661.39;;;8.75;59.14
36138;BME280;67787;50.074;21.904;2023-03-15T01:11:25;97661.24;;;8.78;59.22
36138;BME280;67787;50.074;21.904;2023-03-15T01:13:57;97665.33;;;8.80;59.01
36138;BME280;67787;50.074;21.904;2023-03-15T01:16:26;97670.38;;;8.79;58.95
36138;BME280;67787;50.074;21.904;2023-03-15T01:18:55;97671.04;;;8.79;58.92
36138;BME280;67787;50.074;21.904;2023-03-15T01:21:27;97676.84;;;8.84;59.05
36138;BME280;67787;50.074;21.904;2023-03-15T01:23:55;97679.45;;;8.88;59.12
36138;BME280;67787;50.074;21.904;2023-03-15T01:26:23;97682.43;;;8.93;59.22
36138;BME280;67787;50.074;21.904;2023-03-15T01:28:50;97686.34;;;8.99;59.49
36138;BME280;67787;50.074;21.904;2023-03-15T01:31:21;97690.58;;;9.03;59.48
36138;BME280;67787;50.074;21.904;2023-03-15T01:33:53;97695.39;;;9.08;59.30
36138;BME280;67787;50.074;21.904;2023-03-15T01:36:21;97705.81;;;9.13;59.41
36138;BME280;67787;50.074;21.904;2023-03-15T01:38:50;97713.27;;;9.16;59.35
36138;BME280;67787;50.074;21.904;2023-03-15T01:41:18;97714.25;;;9.19;59.67
36138;BME280;67787;50.074;21.904;2023-03-15T01:43:46;97719.49;;;9.24;59.80
36138;BME280;67787;50.074;21.904;2023-03-15T01:46:21;97715.90;;;9.27;59.81
36138;BME280;67787;50.074;21.904;2023-03-15T01:49:10;97716.09;;;9.29;59.77
36138;BME280;67787;50.074;21.904;2023-03-15T01:52:15;97718.80;;;9.28;59.99
36138;BME280;67787;50.074;21.904;2023-03-15T01:54:59;97721.81;;;9.26;59.84
36138;BME280;67787;50.074;21.904;2023-03-15T01:57:39;97726.84;;;9.23;60.22
36138;BME280;67787;50.074;21.904;2023-03-15T02:00:17;97723.85;;;9.23;60.25
36138;BME280;67787;50.074;21.904;2023-03-15T02:02:52;97733.65;;;9.24;60.88
36138;BME280;67787;50.074;21.904;2023-03-15T02:05:26;97732.40;;;9.24;60.47
36138;BME280;67787;50.074;21.904;2023-03-15T02:07:55;97745.85;;;9.23;61.12
36138;BME280;67787;50.074;21.904;2023-03-15T02:10:30;97744.09;;;9.23;61.06
36138;BME280;67787;50.074;21.904;2023-03-15T02:13:02;97748.23;;;9.23;61.15
36138;BME280;67787;50.074;21.904;2023-03-15T02:15:30;97750.59;;;9.22;61.00
36138;BME280;67787;50.074;21.904;2023-03-15T02:17:59;97745.70;;;9.19;60.82
36138;BME280;67787;50.074;21.904;2023-03-15T02:23:16;97745.27;;;9.14;61.11
36138;BME280;67787;50.074;21.904;2023-03-15T02:25:50;97744.81;;;9.12;61.68
36138;BME280;67787;50.074;21.904;2023-03-15T02:28:21;97749.40;;;9.10;61.88
36138;BME280;67787;50.074;21.904;2023-03-15T02:30:50;97755.05;;;9.08;62.67
36138;BME280;67787;50.074;21.904;2023-03-15T02:33:29;97759.19;;;9.07;62.08
36138;BME280;67787;50.074;21.904;2023-03-15T02:36:20;97766.35;;;9.04;61.44
36138;BME280;67787;50.074;21.904;2023-03-15T02:38:49;97778.34;;;9.00;61.74
36138;BME280;67787;50.074;21.904;2023-03-15T02:41:24;97786.23;;;8.97;62.23
36138;BME280;67787;50.074;21.904;2023-03-15T02:43:58;97803.21;;;8.92;63.00
36138;BME280;67787;50.074;21.904;2023-03-15T02:46:28;97817.14;;;8.87;63.33
36138;BME280;67787;50.074;21.904;2023-03-15T02:48:57;97836.79;;;8.76;63.08
36138;BME280;67787;50.074;21.904;2023-03-15T02:51:28;97851.10;;;8.63;63.26
36138;BME280;67787;50.074;21.904;2023-03-15T02:53:57;97853.55;;;8.48;62.78
36138;BME280;67787;50.074;21.904;2023-03-15T02:56:25;97859.23;;;8.33;62.42
36138;BME280;67787;50.074;21.904;2023-03-15T02:58:53;97871.26;;;8.15;63.08
36138;BME280;67787;50.074;21.904;2023-03-15T03:01:21;97882.28;;;7.95;63.14
36138;BME280;67787;50.074;21.904;2023-03-15T03:03:50;97892.27;;;7.73;63.88
36138;BME280;67787;50.074;21.904;2023-03-15T03:06:18;97896.48;;;7.56;63.45
36138;BME280;67787;50.074;21.904;2023-03-15T03:08:47;97900.73;;;7.40;63.98
36138;BME280;67787;50.074;21.904;2023-03-15T03:11:15;97903.15;;;7.24;63.69
36138;BME280;67787;50.074;21.904;2023-03-15T03:13:51;97920.33;;;7.12;63.57
36138;BME280;67787;50.074;21.904;2023-03-15T03:16:19;97932.48;;;6.95;64.05
36138;BME280;67787;50.074;21.904;2023-03-15T03:18:50;97942.20;;;6.79;64.18
36138;BME280;67787;50.074;21.904;2023-03-15T03:21:18;97946.70;;;6.66;63.77
36138;BME280;67787;50.074;21.904;2023-03-15T03:23:47;97952.80;;;6.55;64.01
36138;BME280;67787;50.074;21.904;2023-03-15T03:26:17;97953.91;;;6.39;63.81
36138;BME280;67787;50.074;21.904;2023-03-15T03:28:46;97964.95;;;6.28;64.28
36138;BME280;67787;50.074;21.904;2023-03-15T03:31:27;97970.11;;;6.17;64.69
36138;BME280;67787;50.074;21.904;2023-03-15T03:33:56;97977.51;;;6.02;64.67
36138;BME280;67787;50.074;21.904;2023-03-15T03:36:24;97981.92;;;5.89;65.17
36138;BME280;67787;50.074;21.904;2023-03-15T03:38:55;97993.64;;;5.77;64.63
36138;BME280;67787;50.074;21.904;2023-03-15T03:41:23;98002.63;;;5.67;65.12
36138;BME280;67787;50.074;21.904;2023-03-15T03:43:52;98003.92;;;5.59;64.41
36138;BME280;67787;50.074;21.904;2023-03-15T03:46:20;98011.10;;;5.51;65.35
36138;BME280;67787;50.074;21.904;2023-03-15T03:48:48;98017.04;;;5.47;64.86
36138;BME280;67787;50.074;21.904;2023-03-15T03:51:19;98009.05;;;5.43;64.97
36138;BME280;67787;50.074;21.904;2023-03-15T03:53:48;98015.65;;;5.39;65.72
36138;BME280;67787;50.074;21.904;2023-03-15T03:56:19;98019.60;;;5.32;64.92
36138;BME280;67787;50.074;21.904;2023-03-15T03:58:48;98026.70;;;5.26;65.43
36138;BME280;67787;50.074;21.904;2023-03-15T04:01:16;98040.06;;;5.18;66.11
36138;BME280;67787;50.074;21.904;2023-03-15T04:03:44;98040.48;;;5.12;65.81
36138;BME280;67787;50.074;21.904;2023-03-15T04:06:11;98048.06;;;5.06;65.52
36138;BME280;67787;50.074;21.904;2023-03-15T04:08:40;98057.39;;;5.00;64.84
36138;BME280;67787;50.074;21.904;2023-03-15T04:11:08;98079.12;;;4.96;65.36
36138;BME280;67787;50.074;21.904;2023-03-15T04:13:36;98073.60;;;4.91;64.73
36138;BME280;67787;50.074;21.904;2023-03-15T04:16:04;98083.00;;;4.90;64.32
36138;BME280;67787;50.074;21.904;2023-03-15T04:18:33;98091.46;;;4.90;64.88
36138;BME280;67787;50.074;21.904;2023-03-15T04:21:01;98104.02;;;4.88;64.58
36138;BME280;67787;50.074;21.904;2023-03-15T04:23:29;98104.62;;;4.85;64.91
36138;BME280;67787;50.074;21.904;2023-03-15T04:25:57;98109.35;;;4.82;64.30
36138;BME280;67787;50.074;21.904;2023-03-15T04:28:25;98114.11;;;4.82;64.50
36138;BME280;67787;50.074;21.904;2023-03-15T04:30:53;98124.34;;;4.78;64.33
36138;BME280;67787;50.074;21.904;2023-03-15T04:33:25;98136.41;;;4.73;64.72
36138;BME280;67787;50.074;21.904;2023-03-15T04:35:53;98137.12;;;4.68;64.25
36138;BME280;67787;50.074;21.904;2023-03-15T04:38:21;98146.26;;;4.65;65.07
36138;BME280;67787;50.074;21.904;2023-03-15T04:40:53;98148.88;;;4.62;64.04
36138;BME280;67787;50.074;21.904;2023-03-15T04:43:22;98155.06;;;4.61;65.00
36138;BME280;67787;50.074;21.904;2023-03-15T04:45:51;98160.17;;;4.58;65.70
36138;BME280;67787;50.074;21.904;2023-03-15T04:48:19;98165.66;;;4.55;65.06
36138;BME280;67787;50.074;21.904;2023-03-15T04:50:47;98163.20;;;4.52;64.82
36138;BME280;67787;50.074;21.904;2023-03-15T04:53:15;98170.61;;;4.51;64.67
36138;BME280;67787;50.074;21.904;2023-03-15T04:55:43;98181.61;;;4.50;64.87
36138;BME280;67787;50.074;21.904;2023-03-15T04:58:11;98190.77;;;4.46;65.56
36138;BME280;67787;50.074;21.904;2023-03-15T05:00:41;98192.91;;;4.43;65.20
36138;BME280;67787;50.074;21.904;2023-03-15T05:03:11;98192.13;;;4.41;65.09
36138;BME280;67787;50.074;21.904;2023-03-15T05:05:39;98189.70;;;4.41;65.06
36138;BME280;67787;50.074;21.904;2023-03-15T05:08:07;98198.63;;;4.41;64.83
36138;BME280;67787;50.074;21.904;2023-03-15T05:10:35;98193.77;;;4.40;65.09
36138;BME280;67787;50.074;21.904;2023-03-15T05:13:02;98196.41;;;4.40;64.75
36138;BME280;67787;50.074;21.904;2023-03-15T05:15:30;98196.56;;;4.41;64.40
36138;BME280;67787;50.074;21.904;2023-03-15T05:17:58;98196.34;;;4.41;64.79
36138;BME280;67787;50.074;21.904;2023-03-15T05:20:26;98198.42;;;4.41;64.48
36138;BME280;67787;50.074;21.904;2023-03-15T05:22:55;98202.66;;;4.41;64.61
36138;BME280;67787;50.074;21.904;2023-03-15T05:25:25;98203.48;;;4.39;64.70
36138;BME280;67787;50.074;21.904;2023-03-15T05:27:57;98206.38;;;4.38;65.03
36138;BME280;67787;50.074;21.904;2023-03-15T05:30:25;98204.69;;;4.37;64.88
36138;BME280;67787;50.074;21.904;2023-03-15T05:32:57;98212.66;;;4.36;64.90
36138;BME280;67787;50.074;21.904;2023-03-15T05:35:25;98210.48;;;4.31;65.13
36138;BME280;67787;50.074;21.904;2023-03-15T05:37:55;98210.92;;;4.29;65.06
36138;BME280;67787;50.074;21.904;2023-03-15T05:40:22;98212.06;;;4.28;64.82
36138;BME280;67787;50.074;21.904;2023-03-15T05:42:50;98211.44;;;4.27;65.36
36138;BME280;67787;50.074;21.904;2023-03-15T05:45:18;98218.73;;;4.25;65.35
36138;BME280;67787;50.074;21.904;2023-03-15T05:47:49;98224.98;;;4.24;64.90
36138;BME280;67787;50.074;21.904;2023-03-15T05:50:17;98225.73;;;4.22;65.03
36138;BME280;67787;50.074;21.904;2023-03-15T05:52:45;98233.05;;;4.21;65.35
36138;BME280;67787;50.074;21.904;2023-03-15T05:55:13;98238.25;;;4.18;65.60
36138;BME280;67787;50.074;21.904;2023-03-15T05:57:41;98237.70;;;4.16;65.61
36138;BME280;67787;50.074;21.904;2023-03-15T06:00:09;98239.21;;;4.14;65.14
36138;BME280;67787;50.074;21.904;2023-03-15T06:02:37;98244.84;;;4.14;65.08
36138;BME280;67787;50.074;21.904;2023-03-15T06:05:06;98243.04;;;4.12;65.18
36138;BME280;67787;50.074;21.904;2023-03-15T06:07:34;98249.95;;;4.10;65.45
36138;BME280;67787;50.074;21.904;2023-03-15T06:10:03;98250.73;;;4.09;65.34
36138;BME280;67787;50.074;21.904;2023-03-15T06:12:31;98261.84;;;4.08;65.27
36138;BME280;67787;50.074;21.904;2023-03-15T06:14:59;98272.77;;;4.08;65.11
36138;BME280;67787;50.074;21.904;2023-03-15T06:17:27;98279.22;;;4.08;65.33
36138;BME280;67787;50.074;21.904;2023-03-15T06:19:55;98287.67;;;4.10;65.18
36138;BME280;67787;50.074;21.904;2023-03-15T06:22:23;98289.52;;;4.12;64.75
36138;BME280;67787;50.074;21.904;2023-03-15T06:24:51;98297.67;;;4.14;64.82
36138;BME280;67787;50.074;21.904;2023-03-15T06:27:19;98312.30;;;4.12;65.13
36138;BME280;67787;50.074;21.904;2023-03-15T06:29:49;98312.59;;;4.11;65.18
36138;BME280;67787;50.074;21.904;2023-03-15T06:32:17;98318.77;;;4.10;65.17
36138;BME280;67787;50.074;21.904;2023-03-15T06:34:45;98320.54;;;4.07;65.39
36138;BME280;67787;50.074;21.904;2023-03-15T06:37:13;98322.84;;;4.06;65.19
36138;BME280;67787;50.074;21.904;2023-03-15T06:39:52;98320.39;;;4.07;65.19
36138;BME280;67787;50.074;21.904;2023-03-15T06:42:21;98326.56;;;4.09;65.04
36138;BME280;67787;50.074;21.904;2023-03-15T06:44:49;98328.15;;;4.08;65.35
36138;BME280;67787;50.074;21.904;2023-03-15T06:47:17;98330.80;;;4.08;65.00
36138;BME280;67787;50.074;21.904;2023-03-15T06:49:45;98333.50;;;4.07;65.13
36138;BME280;67787;50.074;21.904;2023-03-15T06:52:17;98338.29;;;4.06;65.33
36138;BME280;67787;50.074;21.904;2023-03-15T06:54:46;98343.56;;;4.06;64.95
36138;BME280;67787;50.074;21.904;2023-03-15T06:57:14;98346.89;;;4.07;65.41
36138;BME280;67787;50.074;21.904;2023-03-15T06:59:43;98353.15;;;4.07;65.12
36138;BME280;67787;50.074;21.904;2023-03-15T07:02:17;98350.43;;;4.09;65.18
36138;BME280;67787;50.074;21.904;2023-03-15T07:04:46;98348.15;;;4.12;64.89
36138;BME280;67787;50.074;21.904;2023-03-15T07:07:15;98357.02;;;4.16;65.01
36138;BME280;67787;50.074;21.904;2023-03-15T07:09:42;98359.43;;;4.17;64.90
36138;BME280;67787;50.074;21.904;2023-03-15T07:12:10;98366.52;;;4.19;64.97
36138;BME280;67787;50.074;21.904;2023-03-15T07:14:39;98369.90;;;4.15;65.19
36138;BME280;67787;50.074;21.904;2023-03-15T07:17:07;98375.36;;;4.11;65.57
36138;BME280;67787;50.074;21.904;2023-03-15T07:19:35;98372.33;;;4.09;65.12
36138;BME280;67787;50.074;21.904;2023-03-15T07:22:13;98375.42;;;4.10;65.72
36138;BME280;67787;50.074;21.904;2023-03-15T07:24:41;98379.29;;;4.07;65.27
36138;BME280;67787;50.074;21.904;2023-03-15T07:27:11;98384.69;;;4.08;65.04
36138;BME280;67787;50.074;21.904;2023-03-15T07:29:42;98390.14;;;4.11;65.55
36138;BME280;67787;50.074;21.904;2023-03-15T07:32:10;98388.29;;;4.06;65.96
36138;BME280;67787;50.074;21.904;2023-03-15T07:34:38;98394.48;;;4.06;65.09
36138;BME280;67787;50.074;21.904;2023-03-15T07:37:06;98401.42;;;4.10;65.94
36138;BME280;67787;50.074;21.904;2023-03-15T07:39:34;98399.09;;;4.05;66.00
36138;BME280;67787;50.074;21.904;2023-03-15T07:42:03;98404.03;;;4.04;65.54
36138;BME280;67787;50.074;21.904;2023-03-15T07:44:43;98404.70;;;4.05;65.70
36138;BME280;67787;50.074;21.904;2023-03-15T07:47:11;98408.44;;;4.07;65.13
36138;BME280;67787;50.074;21.904;2023-03-15T07:49:39;98418.80;;;4.10;65.82
36138;BME280;67787;50.074;21.904;2023-03-15T07:52:08;98419.27;;;4.08;65.16
36138;BME280;67787;50.074;21.904;2023-03-15T07:54:48;98423.45;;;4.08;65.17
36138;BME280;67787;50.074;21.904;2023-03-15T07:57:16;98427.69;;;4.11;65.15
36138;BME280;67787;50.074;21.904;2023-03-15T07:59:44;98430.80;;;4.08;65.33
36138;BME280;67787;50.074;21.904;2023-03-15T08:02:13;98435.52;;;4.06;65.75
36138;BME280;67787;50.074;21.904;2023-03-15T08:04:42;98444.02;;;4.07;65.41
36138;BME280;67787;50.074;21.904;2023-03-15T08:07:11;98444.98;;;4.12;65.35
36138;BME280;67787;50.074;21.904;2023-03-15T08:09:39;98447.61;;;4.19;65.28
36138;BME280;67787;50.074;21.904;2023-03-15T08:12:07;98447.04;;;4.26;65.21
36138;BME280;67787;50.074;21.904;2023-03-15T08:14:35;98456.30;;;4.26;65.34
36138;BME280;67787;50.074;21.904;2023-03-15T08:17:04;98456.52;;;4.23;65.35
36138;BME280;67787;50.074;21.904;2023-03-15T08:19:32;98457.67;;;4.21;65.17
36138;BME280;67787;50.074;21.904;2023-03-15T08:22:00;98463.02;;;4.19;65.47
36138;BME280;67787;50.074;21.904;2023-03-15T08:24:29;98470.20;;;4.16;65.85
36138;BME280;67787;50.074;21.904;2023-03-15T08:26:58;98472.42;;;4.08;65.58
36138;BME280;67787;50.074;21.904;2023-03-15T08:29:26;98475.42;;;3.98;66.17
36138;BME280;67787;50.074;21.904;2023-03-15T08:31:55;98477.80;;;3.90;65.75
36138;BME280;67787;50.074;21.904;2023-03-15T08:34:24;98476.09;;;3.85;65.77
36138;BME280;67787;50.074;21.904;2023-03-15T08:36:52;98483.32;;;3.85;66.30
36138;BME280;67787;50.074;21.904;2023-03-15T08:39:20;98484.75;;;3.84;66.15
36138;BME280;67787;50.074;21.904;2023-03-15T08:41:50;98490.15;;;3.85;66.34
36138;BME280;67787;50.074;21.904;2023-03-15T08:44:18;98495.90;;;3.89;65.73
36138;BME280;67787;50.074;21.904;2023-03-15T08:46:47;98495.83;;;4.00;65.92
36138;BME280;67787;50.074;21.904;2023-03-15T08:49:15;98506.67;;;4.01;66.16
36138;BME280;67787;50.074;21.904;2023-03-15T08:51:42;98513.52;;;4.01;65.66
36138;BME280;67787;50.074;21.904;2023-03-15T08:54:13;98517.88;;;4.04;65.97
36138;BME280;67787;50.074;21.904;2023-03-15T08:56:47;98515.11;;;4.04;65.75
36138;BME280;67787;50.074;21.904;2023-03-15T08:59:16;98513.20;;;4.04;66.06
36138;BME280;67787;50.074;21.904;2023-03-15T09:01:59;98526.25;;;4.05;65.88
36138;BME280;67787;50.074;21.904;2023-03-15T09:04:27;98531.13;;;3.99;66.67
36138;BME280;67787;50.074;21.904;2023-03-15T09:06:56;98530.17;;;3.94;66.21
36138;BME280;67787;50.074;21.904;2023-03-15T09:09:24;98529.16;;;3.97;65.95
36138;BME280;67787;50.074;21.904;2023-03-15T09:11:53;98535.54;;;4.06;66.83
36138;BME280;67787;50.074;21.904;2023-03-15T09:14:22;98540.20;;;4.07;66.57
36138;BME280;67787;50.074;21.904;2023-03-15T09:16:51;98542.77;;;4.08;66.10
36138;BME280;67787;50.074;21.904;2023-03-15T09:19:22;98542.95;;;4.08;65.88
36138;BME280;67787;50.074;21.904;2023-03-15T09:21:54;98545.48;;;4.10;66.61
36138;BME280;67787;50.074;21.904;2023-03-15T09:24:23;98542.88;;;4.03;66.79
36138;BME280;67787;50.074;21.904;2023-03-15T09:26:51;98543.08;;;4.02;65.93
36138;BME280;67787;50.074;21.904;2023-03-15T09:29:19;98545.38;;;4.02;66.57
36138;BME280;67787;50.074;21.904;2023-03-15T09:31:47;98553.17;;;3.97;66.44
36138;BME280;67787;50.074;21.904;2023-03-15T09:34:16;98555.52;;;3.93;66.53
36138;BME280;67787;50.074;21.904;2023-03-15T09:36:44;98553.87;;;3.91;66.62
36138;BME280;67787;50.074;21.904;2023-03-15T09:39:21;98551.05;;;3.91;66.31
36138;BME280;67787;50.074;21.904;2023-03-15T09:41:56;98554.65;;;3.93;66.82
36138;BME280;67787;50.074;21.904;2023-03-15T09:44:42;98552.30;;;3.91;66.57
36138;BME280;67787;50.074;21.904;2023-03-15T09:49:53;98554.16;;;3.98;66.08
36138;BME280;67787;50.074;21.904;2023-03-15T09:52:40;98554.96;;;4.07;66.35
36138;BME280;67787;50.074;21.904;2023-03-15T09:55:21;98549.05;;;4.15;66.04
36138;BME280;67787;50.074;21.904;2023-03-15T10:03:01;98554.22;;;4.24;66.21
36138;BME280;67787;50.074;21.904;2023-03-15T10:05:40;98556.47;;;4.21;65.78
36138;BME280;67787;50.074;21.904;2023-03-15T10:08:15;98553.30;;;4.31;65.90
36138;BME280;67787;50.074;21.904;2023-03-15T10:11:03;98551.67;;;4.44;65.73
36138;BME280;67787;50.074;21.904;2023-03-15T10:16:41;98549.96;;;4.62;65.82
36138;BME280;67787;50.074;21.904;2023-03-15T10:19:47;98553.08;;;4.72;65.89
36138;BME280;67787;50.074;21.904;2023-03-15T10:22:36;98546.88;;;4.77;65.76
36138;BME280;67787;50.074;21.904;2023-03-15T10:25:18;98546.41;;;4.91;65.77
36138;BME280;67787;50.074;21.904;2023-03-15T10:27:58;98547.79;;;5.01;65.72
36138;BME280;67787;50.074;21.904;2023-03-15T10:30:33;98550.77;;;5.07;65.79
36138;BME280;67787;50.074;21.904;2023-03-15T10:33:15;98548.45;;;5.17;65.76
36138;BME280;67787;50.074;21.904;2023-03-15T10:35:47;98546.77;;;5.25;65.58
36138;BME280;67787;50.074;21.904;2023-03-15T10:38:18;98548.05;;;5.29;65.81
36138;BME280;67787;50.074;21.904;2023-03-15T10:40:56;98549.23;;;5.40;65.68
36138;BME280;67787;50.074;21.904;2023-03-15T10:43:31;98549.52;;;5.41;65.41
36138;BME280;67787;50.074;21.904;2023-03-15T10:48:35;98553.27;;;5.36;64.35
36138;BME280;67787;50.074;21.904;2023-03-15T10:53:58;98563.62;;;5.34;64.18
36138;BME280;67787;50.074;21.904;2023-03-15T10:56:30;98563.29;;;5.36;64.28
36138;BME280;67787;50.074;21.904;2023-03-15T10:59:01;98565.73;;;5.43;64.55
36138;BME280;67787;50.074;21.904;2023-03-15T11:01:40;98558.73;;;5.54;64.65
36138;BME280;67787;50.074;21.904;2023-03-15T11:04:18;98556.71;;;5.70;64.18
36138;BME280;67787;50.074;21.904;2023-03-15T11:06:59;98562.02;;;5.78;63.57
36138;BME280;67787;50.074;21.904;2023-03-15T11:09:38;98568.91;;;5.87;64.09
36138;BME280;67787;50.074;21.904;2023-03-15T11:12:31;98567.46;;;5.99;64.27
36138;BME280;67787;50.074;21.904;2023-03-15T11:15:05;98573.04;;;6.12;63.96
36138;BME280;67787;50.074;21.904;2023-03-15T11:17:40;98574.42;;;6.09;63.92
36138;BME280;67787;50.074;21.904;2023-03-15T11:20:35;98579.08;;;5.99;63.51
36138;BME280;67787;50.074;21.904;2023-03-15T11:23:27;98578.58;;;5.95;64.03
36138;BME280;67787;50.074;21.904;2023-03-15T11:25:57;98577.67;;;5.99;63.52
36138;BME280;67787;50.074;21.904;2023-03-15T11:28:27;98579.21;;;6.03;63.83
36138;BME280;67787;50.074;21.904;2023-03-15T11:30:59;98585.33;;;6.04;62.82
36138;BME280;67787;50.074;21.904;2023-03-15T11:36:06;98582.69;;;6.07;63.18
36138;BME280;67787;50.074;21.904;2023-03-15T11:38:41;98580.31;;;6.08;62.95
36138;BME280;67787;50.074;21.904;2023-03-15T11:46:43;98588.49;;;6.35;63.37
36138;BME280;67787;50.074;21.904;2023-03-15T11:49:15;98591.86;;;6.43;63.53
36138;BME280;67787;50.074;21.904;2023-03-15T11:51:44;98595.63;;;6.54;63.74
36138;BME280;67787;50.074;21.904;2023-03-15T11:54:15;98592.60;;;6.62;63.41
36138;BME280;67787;50.074;21.904;2023-03-15T11:56:51;98600.33;;;6.68;62.34
36138;BME280;67787;50.074;21.904;2023-03-15T11:59:25;98597.41;;;6.64;61.40
36138;BME280;67787;50.074;21.904;2023-03-15T12:01:59;98599.10;;;6.62;61.91
36138;BME280;67787;50.074;21.904;2023-03-15T12:07:23;98603.45;;;6.66;62.07
36138;BME280;67787;50.074;21.904;2023-03-15T12:15:15;98597.87;;;6.79;61.77
36138;BME280;67787;50.074;21.904;2023-03-15T12:17:56;98597.77;;;6.78;61.80
36138;BME280;67787;50.074;21.904;2023-03-15T12:20:39;98600.09;;;6.72;60.48
36138;BME280;67787;50.074;21.904;2023-03-15T12:25:54;98603.55;;;6.65;60.37
36138;BME280;67787;50.074;21.904;2023-03-15T12:28:37;98599.18;;;6.64;60.59
36138;BME280;67787;50.074;21.904;2023-03-15T12:31:09;98603.81;;;6.72;61.52
36138;BME280;67787;50.074;21.904;2023-03-15T12:33:50;98604.17;;;6.85;61.34
36138;BME280;67787;50.074;21.904;2023-03-15T12:39:19;98607.44;;;6.90;60.28
36138;BME280;67787;50.074;21.904;2023-03-15T12:41:50;98607.80;;;6.84;59.96
36138;BME280;67787;50.074;21.904;2023-03-15T12:47:03;98610.42;;;7.00;61.24
36138;BME280;67787;50.074;21.904;2023-03-15T12:49:42;98613.18;;;7.02;60.01
36138;BME280;67787;50.074;21.904;2023-03-15T12:55:20;98618.96;;;6.99;60.62
36138;BME280;67787;50.074;21.904;2023-03-15T12:57:49;98620.34;;;7.05;60.90
36138;BME280;67787;50.074;21.904;2023-03-15T13:00:24;98619.35;;;7.10;60.55
36138;BME280;67787;50.074;21.904;2023-03-15T13:03:13;98623.23;;;7.12;60.38
36138;BME280;67787;50.074;21.904;2023-03-15T13:06:05;98621.63;;;7.15;60.29
36138;BME280;67787;50.074;21.904;2023-03-15T13:09:05;98622.85;;;7.18;59.70
36138;BME280;67787;50.074;21.904;2023-03-15T13:11:45;98625.87;;;7.18;58.94
36138;BME280;67787;50.074;21.904;2023-03-15T13:14:39;98628.86;;;7.15;59.79
36138;BME280;67787;50.074;21.904;2023-03-15T13:20:29;98631.89;;;7.15;60.31
36138;BME280;67787;50.074;21.904;2023-03-15T13:23:12;98633.70;;;7.11;58.50
36138;BME280;67787;50.074;21.904;2023-03-15T13:28:59;98638.01;;;7.05;59.47
36138;BME280;67787;50.074;21.904;2023-03-15T13:31:29;98646.19;;;7.01;59.33
36138;BME280;67787;50.074;21.904;2023-03-15T13:34:12;98649.84;;;6.99;59.60
36138;BME280;67787;50.074;21.904;2023-03-15T13:36:44;98650.30;;;6.94;59.04
36138;BME280;67787;50.074;21.904;2023-03-15T13:39:19;98651.92;;;6.94;59.56
36138;BME280;67787;50.074;21.904;2023-03-15T13:41:55;98656.05;;;6.93;59.27
36138;BME280;67787;50.074;21.904;2023-03-15T13:44:26;98660.62;;;6.88;59.23
36138;BME280;67787;50.074;21.904;2023-03-15T13:46:55;98661.48;;;6.79;58.91
36138;BME280;67787;50.074;21.904;2023-03-15T13:49:29;98657.64;;;6.73;59.24
36138;BME280;67787;50.074;21.904;2023-03-15T13:52:00;98663.91;;;6.69;58.69
36138;BME280;67787;50.074;21.904;2023-03-15T13:54:34;98662.98;;;6.64;58.71
36138;BME280;67787;50.074;21.904;2023-03-15T13:57:11;98665.03;;;6.56;57.82
36138;BME280;67787;50.074;21.904;2023-03-15T13:59:57;98664.81;;;6.49;58.39
36138;BME280;67787;50.074;21.904;2023-03-15T14:02:47;98669.94;;;6.46;57.90
36138;BME280;67787;50.074;21.904;2023-03-15T14:05:23;98672.35;;;6.40;58.76
36138;BME280;67787;50.074;21.904;2023-03-15T14:07:59;98675.11;;;6.38;58.94
36138;BME280;67787;50.074;21.904;2023-03-15T14:10:37;98674.65;;;6.37;58.90
36138;BME280;67787;50.074;21.904;2023-03-15T14:13:21;98678.25;;;6.33;58.14
36138;BME280;67787;50.074;21.904;2023-03-15T14:16:02;98683.20;;;6.24;58.18
36138;BME280;67787;50.074;21.904;2023-03-15T14:18:37;98686.45;;;6.14;57.90